sensor_id;sensor_type;location;lat;lon;timestamp;pressure;altitude;pressure_sealevel;temperature;humidity
79457;BME280;69494;43.654;3.884;2023-05-10T00:00:50;101351.44;;;16.63;59.66
79457;BME280;69494;43.654;3.884;2023-05-10T00:03:15;101350.88;;;16.51;59.99
79457;BME280;69494;43.654;3.884;2023-05-10T00:05:41;101352.25;;;16.65;58.18
79457;BME280;69494;43.654;3.884;2023-05-10T00:08:06;101356.75;;;16.59;58.22
79457;BME280;69494;43.654;3.884;2023-05-10T00:10:32;101355.22;;;16.52;58.82
79457;BME280;69494;43.654;3.884;2023-05-10T00:12:57;101347.22;;;16.57;57.60
79457;BME280;69494;43.654;3.884;2023-05-10T00:15:22;101352.66;;;16.51;58.35
79457;BME280;69494;43.654;3.884;2023-05-10T00:17:48;101339.53;;;16.51;57.41
79457;BME280;69494;43.654;3.884;2023-05-10T00:20:13;101337.22;;;16.40;58.23
79457;BME280;69494;43.654;3.884;2023-05-10T00:22:38;101344.16;;;16.41;57.65
79457;BME280;69494;43.654;3.884;2023-05-10T00:25:05;101338.69;;;16.49;56.71
79457;BME280;69494;43.654;3.884;2023-05-10T00:27:31;101340.69;;;16.41;56.69
79457;BME280;69494;43.654;3.884;2023-05-10T00:29:56;101334.66;;;16.37;56.44
79457;BME280;69494;43.654;3.884;2023-05-10T00:32:22;101338.28;;;16.33;56.58
79457;BME280;69494;43.654;3.884;2023-05-10T00:34:48;101339.84;;;16.40;55.93
79457;BME280;69494;43.654;3.884;2023-05-10T00:37:13;101344.50;;;16.29;57.22
79457;BME280;69494;43.654;3.884;2023-05-10T00:39:39;101346.19;;;16.31;56.70
79457;BME280;69494;43.654;3.884;2023-05-10T00:42:04;101345.59;;;16.20;57.40
79457;BME280;69494;43.654;3.884;2023-05-10T00:44:29;101353.47;;;16.18;56.94
79457;BME280;69494;43.654;3.884;2023-05-10T00:46:56;101349.28;;;16.13;57.44
79457;BME280;69494;43.654;3.884;2023-05-10T00:49:22;101354.53;;;16.11;57.29
79457;BME280;69494;43.654;3.884;2023-05-10T00:51:48;101352.81;;;16.12;57.08
79457;BME280;69494;43.654;3.884;2023-05-10T00:54:14;101355.44;;;16.12;57.39
79457;BME280;69494;43.654;3.884;2023-05-10T00:56:40;101344.94;;;16.12;57.12
79457;BME280;69494;43.654;3.884;2023-05-10T00:59:07;101338.13;;;16.05;57.36
79457;BME280;69494;43.654;3.884;2023-05-10T01:01:33;101339.06;;;16.02;57.23
79457;BME280;69494;43.654;3.884;2023-05-10T01:03:59;101331.16;;;16.04;56.91
79457;BME280;69494;43.654;3.884;2023-05-10T01:06:24;101327.19;;;15.89;58.03
79457;BME280;69494;43.654;3.884;2023-05-10T01:08:50;101320.84;;;15.97;57.29
79457;BME280;69494;43.654;3.884;2023-05-10T01:11:15;101314.84;;;15.94;57.23
79457;BME280;69494;43.654;3.884;2023-05-10T01:13:43;101319.13;;;15.96;57.10
79457;BME280;69494;43.654;3.884;2023-05-10T01:16:11;101315.00;;;15.86;57.85
79457;BME280;69494;43.654;3.884;2023-05-10T01:18:39;101314.22;;;15.82;57.76
79457;BME280;69494;43.654;3.884;2023-05-10T01:29:39;101313.06;;;15.94;57.55
79457;BME280;69494;43.654;3.884;2023-05-10T01:35:03;101327.13;;;15.92;57.63
79457;BME280;69494;43.654;3.884;2023-05-10T01:37:42;101332.53;;;15.84;58.09
79457;BME280;69494;43.654;3.884;2023-05-10T01:40:14;101338.50;;;15.89;57.75
79457;BME280;69494;43.654;3.884;2023-05-10T01:42:51;101333.47;;;15.81;57.97
79457;BME280;69494;43.654;3.884;2023-05-10T01:45:37;101338.81;;;15.77;58.16
79457;BME280;69494;43.654;3.884;2023-05-10T01:48:06;101332.88;;;15.69;58.41
79457;BME280;69494;43.654;3.884;2023-05-10T01:50:36;101327.69;;;15.67;58.10
79457;BME280;69494;43.654;3.884;2023-05-10T01:53:06;101333.78;;;15.68;57.70
79457;BME280;69494;43.654;3.884;2023-05-10T01:55:36;101332.19;;;15.60;57.86
79457;BME280;69494;43.654;3.884;2023-05-10T01:58:10;101335.78;;;15.56;57.33
79457;BME280;69494;43.654;3.884;2023-05-10T02:00:40;101336.56;;;15.61;56.56
79457;BME280;69494;43.654;3.884;2023-05-10T02:03:08;101335.53;;;15.67;55.46
79457;BME280;69494;43.654;3.884;2023-05-10T02:05:36;101345.28;;;15.60;55.90
79457;BME280;69494;43.654;3.884;2023-05-10T02:08:05;101349.41;;;15.71;54.09
79457;BME280;69494;43.654;3.884;2023-05-10T02:10:32;101364.31;;;15.69;54.00
79457;BME280;69494;43.654;3.884;2023-05-10T02:12:58;101368.66;;;15.68;53.71
79457;BME280;69494;43.654;3.884;2023-05-10T02:15:26;101370.69;;;15.57;54.43
79457;BME280;69494;43.654;3.884;2023-05-10T02:17:54;101369.81;;;15.58;53.60
79457;BME280;69494;43.654;3.884;2023-05-10T02:20:20;101372.72;;;15.44;54.59
79457;BME280;69494;43.654;3.884;2023-05-10T02:22:49;101371.66;;;15.53;54.15
79457;BME280;69494;43.654;3.884;2023-05-10T02:25:18;101378.75;;;15.48;54.57
79457;BME280;69494;43.654;3.884;2023-05-10T02:27:44;101380.59;;;15.44;54.83
79457;BME280;69494;43.654;3.884;2023-05-10T02:30:10;101384.16;;;15.40;54.41
79457;BME280;69494;43.654;3.884;2023-05-10T02:32:37;101395.63;;;15.34;54.83
79457;BME280;69494;43.654;3.884;2023-05-10T02:35:03;101391.28;;;15.33;54.91
79457;BME280;69494;43.654;3.884;2023-05-10T02:37:30;101391.22;;;15.36;54.38
79457;BME280;69494;43.654;3.884;2023-05-10T02:39:58;101394.13;;;15.22;55.52
79457;BME280;69494;43.654;3.884;2023-05-10T02:42:26;101392.34;;;15.24;54.83
79457;BME280;69494;43.654;3.884;2023-05-10T02:44:54;101394.97;;;15.24;54.36
79457;BME280;69494;43.654;3.884;2023-05-10T02:47:22;101395.28;;;15.09;55.36
79457;BME280;69494;43.654;3.884;2023-05-10T02:49:47;101399.72;;;15.04;55.28
79457;BME280;69494;43.654;3.884;2023-05-10T02:52:16;101406.91;;;14.96;55.55
79457;BME280;69494;43.654;3.884;2023-05-10T02:54:45;101403.44;;;14.94;54.99
79457;BME280;69494;43.654;3.884;2023-05-10T02:57:16;101410.56;;;14.85;55.84
79457;BME280;69494;43.654;3.884;2023-05-10T02:59:44;101405.31;;;14.87;54.45
79457;BME280;69494;43.654;3.884;2023-05-10T03:02:12;101400.03;;;14.90;54.10
79457;BME280;69494;43.654;3.884;2023-05-10T03:04:38;101406.31;;;14.81;54.75
79457;BME280;69494;43.654;3.884;2023-05-10T03:07:03;101412.38;;;14.82;55.08
79457;BME280;69494;43.654;3.884;2023-05-10T03:09:29;101413.31;;;14.81;54.61
79457;BME280;69494;43.654;3.884;2023-05-10T03:20:09;101425.97;;;14.54;56.01
79457;BME280;69494;43.654;3.884;2023-05-10T03:22:45;101425.00;;;14.61;57.17
79457;BME280;69494;43.654;3.884;2023-05-10T03:25:12;101412.97;;;14.49;55.80
79457;BME280;69494;43.654;3.884;2023-05-10T03:27:43;101417.38;;;14.46;55.63
79457;BME280;69494;43.654;3.884;2023-05-10T03:30:11;101415.63;;;14.46;55.75
79457;BME280;69494;43.654;3.884;2023-05-10T03:32:37;101412.16;;;14.44;56.37
79457;BME280;69494;43.654;3.884;2023-05-10T03:35:10;101410.56;;;14.36;57.01
79457;BME280;69494;43.654;3.884;2023-05-10T03:37:36;101400.25;;;14.28;57.48
79457;BME280;69494;43.654;3.884;2023-05-10T03:40:02;101399.59;;;14.17;58.09
79457;BME280;69494;43.654;3.884;2023-05-10T03:42:28;101408.28;;;14.17;58.33
79457;BME280;69494;43.654;3.884;2023-05-10T03:44:53;101406.53;;;14.18;57.95
79457;BME280;69494;43.654;3.884;2023-05-10T03:47:19;101407.19;;;14.30;58.06
79457;BME280;69494;43.654;3.884;2023-05-10T03:49:44;101402.75;;;14.36;57.73
79457;BME280;69494;43.654;3.884;2023-05-10T03:52:10;101403.75;;;14.27;58.25
79457;BME280;69494;43.654;3.884;2023-05-10T03:54:36;101394.22;;;14.26;57.96
79457;BME280;69494;43.654;3.884;2023-05-10T03:57:01;101402.13;;;14.21;58.34
79457;BME280;69494;43.654;3.884;2023-05-10T03:59:28;101396.09;;;14.16;58.63
79457;BME280;69494;43.654;3.884;2023-05-10T04:01:53;101395.97;;;14.25;59.18
79457;BME280;69494;43.654;3.884;2023-05-10T04:04:19;101377.69;;;14.24;58.45
79457;BME280;69494;43.654;3.884;2023-05-10T04:06:46;101384.78;;;14.16;58.37
79457;BME280;69494;43.654;3.884;2023-05-10T04:09:11;101377.16;;;14.03;59.68
79457;BME280;69494;43.654;3.884;2023-05-10T04:11:36;101390.84;;;14.19;58.37
79457;BME280;69494;43.654;3.884;2023-05-10T04:14:02;101389.03;;;14.23;58.28
79457;BME280;69494;43.654;3.884;2023-05-10T04:16:27;101388.25;;;14.18;58.26
79457;BME280;69494;43.654;3.884;2023-05-10T04:18:53;101395.03;;;14.29;56.64
79457;BME280;69494;43.654;3.884;2023-05-10T04:21:18;101389.84;;;14.26;55.85
79457;BME280;69494;43.654;3.884;2023-05-10T04:23:43;101407.91;;;14.40;55.56
79457;BME280;69494;43.654;3.884;2023-05-10T04:26:09;101386.69;;;14.56;54.38
79457;BME280;69494;43.654;3.884;2023-05-10T04:28:34;101395.66;;;14.42;55.46
79457;BME280;69494;43.654;3.884;2023-05-10T04:31:04;101394.84;;;14.40;55.47
79457;BME280;69494;43.654;3.884;2023-05-10T04:33:30;101405.19;;;14.45;55.68
79457;BME280;69494;43.654;3.884;2023-05-10T04:35:56;101406.16;;;14.39;55.32
79457;BME280;69494;43.654;3.884;2023-05-10T04:38:21;101410.28;;;14.53;54.56
79457;BME280;69494;43.654;3.884;2023-05-10T04:40:47;101418.41;;;14.37;55.93
79457;BME280;69494;43.654;3.884;2023-05-10T04:43:12;101415.03;;;14.30;56.38
79457;BME280;69494;43.654;3.884;2023-05-10T04:45:38;101411.72;;;14.21;56.80
79457;BME280;69494;43.654;3.884;2023-05-10T04:48:03;101404.91;;;14.10;57.99
79457;BME280;69494;43.654;3.884;2023-05-10T04:50:29;101403.25;;;14.05;58.75
79457;BME280;69494;43.654;3.884;2023-05-10T04:52:54;101398.00;;;14.06;58.82
79457;BME280;69494;43.654;3.884;2023-05-10T04:55:19;101395.44;;;14.03;58.58
79457;BME280;69494;43.654;3.884;2023-05-10T04:57:45;101396.28;;;14.05;58.75
79457;BME280;69494;43.654;3.884;2023-05-10T05:00:11;101397.84;;;14.16;58.32
79457;BME280;69494;43.654;3.884;2023-05-10T05:02:37;101396.19;;;14.11;58.89
79457;BME280;69494;43.654;3.884;2023-05-10T05:05:02;101402.06;;;14.24;58.80
79457;BME280;69494;43.654;3.884;2023-05-10T05:07:28;101403.84;;;14.22;58.77
79457;BME280;69494;43.654;3.884;2023-05-10T05:09:55;101402.75;;;14.34;58.39
79457;BME280;69494;43.654;3.884;2023-05-10T05:12:20;101402.75;;;14.34;58.68
79457;BME280;69494;43.654;3.884;2023-05-10T05:14:46;101397.50;;;14.36;58.86
79457;BME280;69494;43.654;3.884;2023-05-10T05:17:11;101412.41;;;14.30;59.83
79457;BME280;69494;43.654;3.884;2023-05-10T05:19:37;101409.78;;;14.32;59.40
79457;BME280;69494;43.654;3.884;2023-05-10T05:22:02;101418.44;;;14.34;59.25
79457;BME280;69494;43.654;3.884;2023-05-10T05:24:27;101410.59;;;14.34;59.39
79457;BME280;69494;43.654;3.884;2023-05-10T05:26:53;101418.31;;;14.43;59.76
79457;BME280;69494;43.654;3.884;2023-05-10T05:29:18;101425.25;;;14.43;59.57
79457;BME280;69494;43.654;3.884;2023-05-10T05:31:43;101424.34;;;14.47;59.87
79457;BME280;69494;43.654;3.884;2023-05-10T05:34:09;101423.38;;;14.51;59.87
79457;BME280;69494;43.654;3.884;2023-05-10T05:36:36;101430.31;;;14.52;60.54
79457;BME280;69494;43.654;3.884;2023-05-10T05:39:05;101432.09;;;14.52;60.88
79457;BME280;69494;43.654;3.884;2023-05-10T05:41:30;101435.47;;;14.57;60.66
79457;BME280;69494;43.654;3.884;2023-05-10T05:43:55;101437.97;;;14.66;60.62
79457;BME280;69494;43.654;3.884;2023-05-10T05:46:21;101433.50;;;14.73;60.26
79457;BME280;69494;43.654;3.884;2023-05-10T05:48:46;101419.44;;;14.78;60.51
79457;BME280;69494;43.654;3.884;2023-05-10T05:51:12;101419.34;;;14.83;59.70
79457;BME280;69494;43.654;3.884;2023-05-10T05:53:37;101423.56;;;14.92;58.85
79457;BME280;69494;43.654;3.884;2023-05-10T05:56:02;101412.94;;;14.99;58.40
79457;BME280;69494;43.654;3.884;2023-05-10T05:58:28;101416.22;;;15.07;57.77
79457;BME280;69494;43.654;3.884;2023-05-10T06:00:54;101413.34;;;16.35;53.84
79457;BME280;69494;43.654;3.884;2023-05-10T06:03:19;101394.81;;;17.37;49.92
79457;BME280;69494;43.654;3.884;2023-05-10T06:05:45;101394.22;;;17.85;47.16
79457;BME280;69494;43.654;3.884;2023-05-10T06:08:10;101399.44;;;17.57;46.65
79457;BME280;69494;43.654;3.884;2023-05-10T06:10:36;101388.66;;;18.21;44.45
79457;BME280;69494;43.654;3.884;2023-05-10T06:13:02;101385.59;;;18.59;43.26
79457;BME280;69494;43.654;3.884;2023-05-10T06:15:27;101389.59;;;18.19;43.02
79457;BME280;69494;43.654;3.884;2023-05-10T06:17:53;101396.69;;;18.17;42.86
79457;BME280;69494;43.654;3.884;2023-05-10T06:20:18;101383.63;;;18.91;41.54
79457;BME280;69494;43.654;3.884;2023-05-10T06:22:44;101384.16;;;18.50;41.66
79457;BME280;69494;43.654;3.884;2023-05-10T06:25:10;101388.38;;;18.54;41.46
79457;BME280;69494;43.654;3.884;2023-05-10T06:27:35;101394.25;;;18.37;42.03
79457;BME280;69494;43.654;3.884;2023-05-10T06:30:01;101389.91;;;18.09;42.72
79457;BME280;69494;43.654;3.884;2023-05-10T06:32:27;101395.13;;;18.11;42.65
79457;BME280;69494;43.654;3.884;2023-05-10T06:34:53;101390.44;;;18.21;41.44
79457;BME280;69494;43.654;3.884;2023-05-10T06:37:18;101396.59;;;18.20;42.23
79457;BME280;69494;43.654;3.884;2023-05-10T06:39:43;101395.78;;;18.93;40.42
79457;BME280;69494;43.654;3.884;2023-05-10T06:42:09;101409.31;;;18.32;40.74
79457;BME280;69494;43.654;3.884;2023-05-10T06:44:34;101407.47;;;18.09;41.44
79457;BME280;69494;43.654;3.884;2023-05-10T06:46:59;101410.13;;;18.07;42.07
79457;BME280;69494;43.654;3.884;2023-05-10T06:49:25;101403.84;;;18.38;40.40
79457;BME280;69494;43.654;3.884;2023-05-10T06:51:50;101403.69;;;18.68;40.47
79457;BME280;69494;43.654;3.884;2023-05-10T06:54:16;101398.81;;;18.82;40.19
79457;BME280;69494;43.654;3.884;2023-05-10T06:56:41;101399.31;;;18.92;39.47
79457;BME280;69494;43.654;3.884;2023-05-10T06:59:08;101396.41;;;19.23;38.95
79457;BME280;69494;43.654;3.884;2023-05-10T07:01:33;101395.91;;;18.40;39.75
79457;BME280;69494;43.654;3.884;2023-05-10T07:03:59;101390.38;;;19.43;37.88
79457;BME280;69494;43.654;3.884;2023-05-10T07:06:24;101387.13;;;19.37;37.15
79457;BME280;69494;43.654;3.884;2023-05-10T07:08:49;101383.69;;;19.80;37.00
79457;BME280;69494;43.654;3.884;2023-05-10T07:11:15;101398.72;;;19.09;38.34
79457;BME280;69494;43.654;3.884;2023-05-10T07:13:40;101399.47;;;18.89;37.91
79457;BME280;69494;43.654;3.884;2023-05-10T07:16:09;101403.63;;;18.95;38.26
79457;BME280;69494;43.654;3.884;2023-05-10T07:18:35;101392.84;;;20.14;36.67
79457;BME280;69494;43.654;3.884;2023-05-10T07:21:00;101384.22;;;19.89;35.79
79457;BME280;69494;43.654;3.884;2023-05-10T07:23:25;101397.88;;;19.98;35.64
79457;BME280;69494;43.654;3.884;2023-05-10T07:25:51;101405.19;;;20.75;35.32
79457;BME280;69494;43.654;3.884;2023-05-10T07:28:18;101394.72;;;20.93;34.21
79457;BME280;69494;43.654;3.884;2023-05-10T07:30:43;101399.88;;;20.34;33.64
79457;BME280;69494;43.654;3.884;2023-05-10T07:33:10;101397.88;;;19.98;34.35
79457;BME280;69494;43.654;3.884;2023-05-10T07:35:36;101400.94;;;21.30;32.89
79457;BME280;69494;43.654;3.884;2023-05-10T07:38:02;101402.53;;;20.75;33.22
79457;BME280;69494;43.654;3.884;2023-05-10T07:40:28;101403.78;;;20.67;33.63
79457;BME280;69494;43.654;3.884;2023-05-10T07:42:53;101404.78;;;21.04;32.43
79457;BME280;69494;43.654;3.884;2023-05-10T07:45:19;101411.13;;;21.00;32.23
79457;BME280;69494;43.654;3.884;2023-05-10T07:47:44;101412.22;;;21.33;31.93
79457;BME280;69494;43.654;3.884;2023-05-10T07:50:10;101415.81;;;21.32;31.15
79457;BME280;69494;43.654;3.884;2023-05-10T07:52:35;101419.38;;;20.73;31.44
79457;BME280;69494;43.654;3.884;2023-05-10T07:55:01;101421.22;;;20.71;31.79
79457;BME280;69494;43.654;3.884;2023-05-10T07:57:26;101415.78;;;20.33;31.76
79457;BME280;69494;43.654;3.884;2023-05-10T07:59:52;101417.19;;;20.42;31.28
79457;BME280;69494;43.654;3.884;2023-05-10T08:02:17;101424.56;;;20.54;32.11
79457;BME280;69494;43.654;3.884;2023-05-10T08:04:42;101414.34;;;21.44;30.45
79457;BME280;69494;43.654;3.884;2023-05-10T08:07:08;101422.75;;;20.77;31.38
79457;BME280;69494;43.654;3.884;2023-05-10T08:09:33;101421.38;;;20.68;32.66
79457;BME280;69494;43.654;3.884;2023-05-10T08:11:59;101416.22;;;21.04;30.95
79457;BME280;69494;43.654;3.884;2023-05-10T08:14:25;101407.16;;;21.48;31.30
79457;BME280;69494;43.654;3.884;2023-05-10T08:16:51;101422.06;;;21.30;30.85
79457;BME280;69494;43.654;3.884;2023-05-10T08:19:16;101424.50;;;21.16;31.52
79457;BME280;69494;43.654;3.884;2023-05-10T08:21:45;101410.25;;;22.12;30.27
79457;BME280;69494;43.654;3.884;2023-05-10T08:24:10;101423.09;;;21.65;30.03
79457;BME280;69494;43.654;3.884;2023-05-10T08:26:36;101423.16;;;21.26;31.17
79457;BME280;69494;43.654;3.884;2023-05-10T08:29:01;101431.06;;;21.83;29.97
79457;BME280;69494;43.654;3.884;2023-05-10T08:31:27;101427.84;;;21.00;31.36
79457;BME280;69494;43.654;3.884;2023-05-10T08:33:52;101415.16;;;22.02;30.53
79457;BME280;69494;43.654;3.884;2023-05-10T08:36:18;101429.16;;;21.10;30.16
79457;BME280;69494;43.654;3.884;2023-05-10T08:38:49;101425.59;;;21.30;29.88
79457;BME280;69494;43.654;3.884;2023-05-10T08:41:15;101424.72;;;21.30;30.30
79457;BME280;69494;43.654;3.884;2023-05-10T08:43:41;101426.75;;;22.17;29.34
79457;BME280;69494;43.654;3.884;2023-05-10T08:46:15;101424.06;;;21.44;30.51
79457;BME280;69494;43.654;3.884;2023-05-10T08:48:43;101408.91;;;22.03;29.53
79457;BME280;69494;43.654;3.884;2023-05-10T08:51:09;101421.00;;;22.26;29.31
79457;BME280;69494;43.654;3.884;2023-05-10T08:53:38;101420.06;;;22.44;28.85
79457;BME280;69494;43.654;3.884;2023-05-10T08:56:04;101419.22;;;22.26;28.66
79457;BME280;69494;43.654;3.884;2023-05-10T08:58:29;101421.25;;;22.39;29.85
79457;BME280;69494;43.654;3.884;2023-05-10T09:00:55;101415.28;;;22.86;28.10
79457;BME280;69494;43.654;3.884;2023-05-10T09:03:22;101419.28;;;22.60;30.40
79457;BME280;69494;43.654;3.884;2023-05-10T09:05:50;101417.44;;;23.29;28.49
79457;BME280;69494;43.654;3.884;2023-05-10T09:08:16;101420.38;;;23.07;27.87
79457;BME280;69494;43.654;3.884;2023-05-10T09:10:43;101425.78;;;23.37;28.14
79457;BME280;69494;43.654;3.884;2023-05-10T09:13:10;101420.94;;;22.96;28.27
79457;BME280;69494;43.654;3.884;2023-05-10T09:15:37;101413.94;;;22.44;28.21
79457;BME280;69494;43.654;3.884;2023-05-10T09:18:03;101397.78;;;22.99;28.23
79457;BME280;69494;43.654;3.884;2023-05-10T09:20:29;101404.56;;;23.05;28.85
79457;BME280;69494;43.654;3.884;2023-05-10T09:22:54;101399.34;;;22.70;28.85
79457;BME280;69494;43.654;3.884;2023-05-10T09:25:20;101412.94;;;22.80;28.82
79457;BME280;69494;43.654;3.884;2023-05-10T09:27:47;101412.81;;;23.16;28.19
79457;BME280;69494;43.654;3.884;2023-05-10T09:30:26;101409.72;;;22.57;28.23
79457;BME280;69494;43.654;3.884;2023-05-10T09:32:53;101412.22;;;23.43;28.25
79457;BME280;69494;43.654;3.884;2023-05-10T09:35:22;101408.00;;;23.39;27.98
79457;BME280;69494;43.654;3.884;2023-05-10T09:37:53;101397.50;;;23.06;28.05
79457;BME280;69494;43.654;3.884;2023-05-10T09:40:21;101388.59;;;23.54;28.39
79457;BME280;69494;43.654;3.884;2023-05-10T09:42:57;101404.81;;;24.26;27.75
79457;BME280;69494;43.654;3.884;2023-05-10T09:45:24;101422.38;;;23.51;29.47
79457;BME280;69494;43.654;3.884;2023-05-10T09:47:50;101396.47;;;23.40;28.20
79457;BME280;69494;43.654;3.884;2023-05-10T09:50:15;101400.66;;;23.28;28.83
79457;BME280;69494;43.654;3.884;2023-05-10T09:52:52;101387.06;;;23.34;27.30
79457;BME280;69494;43.654;3.884;2023-05-10T09:55:24;101381.97;;;23.77;27.82
79457;BME280;69494;43.654;3.884;2023-05-10T09:57:59;101380.38;;;24.50;27.75
79457;BME280;69494;43.654;3.884;2023-05-10T10:00:26;101372.66;;;23.86;27.68
79457;BME280;69494;43.654;3.884;2023-05-10T10:02:58;101378.19;;;23.97;28.83
79457;BME280;69494;43.654;3.884;2023-05-10T10:05:35;101392.97;;;24.02;28.31
79457;BME280;69494;43.654;3.884;2023-05-10T10:08:03;101379.16;;;24.11;29.22
79457;BME280;69494;43.654;3.884;2023-05-10T10:10:32;101386.69;;;23.88;28.55
79457;BME280;69494;43.654;3.884;2023-05-10T10:12:57;101397.34;;;24.33;27.83
79457;BME280;69494;43.654;3.884;2023-05-10T10:15:23;101399.59;;;23.78;27.84
79457;BME280;69494;43.654;3.884;2023-05-10T10:17:50;101413.13;;;23.90;27.28
79457;BME280;69494;43.654;3.884;2023-05-10T10:20:17;101404.63;;;23.99;27.10
79457;BME280;69494;43.654;3.884;2023-05-10T10:22:43;101407.41;;;24.42;27.42
79457;BME280;69494;43.654;3.884;2023-05-10T10:25:10;101403.88;;;24.72;26.35
79457;BME280;69494;43.654;3.884;2023-05-10T10:28:03;101389.97;;;25.10;27.02
79457;BME280;69494;43.654;3.884;2023-05-10T10:30:42;101395.09;;;23.65;27.01
79457;BME280;69494;43.654;3.884;2023-05-10T10:33:58;101399.81;;;23.59;27.79
79457;BME280;69494;43.654;3.884;2023-05-10T10:36:24;101399.25;;;23.05;27.38
79457;BME280;69494;43.654;3.884;2023-05-10T10:49:42;101366.66;;;23.98;26.61
79457;BME280;69494;43.654;3.884;2023-05-10T10:52:30;101358.53;;;23.86;26.33
79457;BME280;69494;43.654;3.884;2023-05-10T10:57:53;101359.06;;;24.80;25.16
79457;BME280;69494;43.654;3.884;2023-05-10T11:00:38;101355.84;;;24.75;25.38
79457;BME280;69494;43.654;3.884;2023-05-10T11:03:09;101352.03;;;24.36;26.04
79457;BME280;69494;43.654;3.884;2023-05-10T11:05:47;101360.94;;;24.49;26.25
79457;BME280;69494;43.654;3.884;2023-05-10T11:08:17;101373.19;;;24.07;27.40
79457;BME280;69494;43.654;3.884;2023-05-10T11:15:57;101348.44;;;24.07;26.18
79457;BME280;69494;43.654;3.884;2023-05-10T11:18:29;101349.28;;;24.07;25.70
79457;BME280;69494;43.654;3.884;2023-05-10T11:21:00;101349.19;;;23.94;26.31
79457;BME280;69494;43.654;3.884;2023-05-10T11:26:07;101347.88;;;24.02;24.95
79457;BME280;69494;43.654;3.884;2023-05-10T11:28:35;101328.00;;;24.52;25.24
79457;BME280;69494;43.654;3.884;2023-05-10T11:31:00;101343.53;;;24.01;25.17
79457;BME280;69494;43.654;3.884;2023-05-10T11:33:26;101333.97;;;23.82;25.00
79457;BME280;69494;43.654;3.884;2023-05-10T11:35:51;101338.63;;;24.52;23.97
79457;BME280;69494;43.654;3.884;2023-05-10T11:38:16;101332.78;;;24.32;24.00
79457;BME280;69494;43.654;3.884;2023-05-10T11:40:42;101339.13;;;24.87;23.75
79457;BME280;69494;43.654;3.884;2023-05-10T11:43:09;101318.53;;;25.18;24.95
79457;BME280;69494;43.654;3.884;2023-05-10T11:45:35;101317.63;;;24.78;25.60
79457;BME280;69494;43.654;3.884;2023-05-10T11:48:02;101302.91;;;24.86;24.20
79457;BME280;69494;43.654;3.884;2023-05-10T11:50:28;101298.97;;;25.34;25.07
79457;BME280;69494;43.654;3.884;2023-05-10T11:52:55;101309.56;;;25.48;25.58
79457;BME280;69494;43.654;3.884;2023-05-10T11:55:20;101304.34;;;25.46;23.67
79457;BME280;69494;43.654;3.884;2023-05-10T11:57:46;101310.88;;;25.28;23.68
79457;BME280;69494;43.654;3.884;2023-05-10T12:00:12;101306.28;;;25.03;24.72
79457;BME280;69494;43.654;3.884;2023-05-10T12:02:38;101304.16;;;24.81;24.66
79457;BME280;69494;43.654;3.884;2023-05-10T12:05:04;101293.47;;;24.95;23.83
79457;BME280;69494;43.654;3.884;2023-05-10T12:07:31;101289.28;;;24.91;23.44
79457;BME280;69494;43.654;3.884;2023-05-10T12:10:04;101289.91;;;25.09;24.97
79457;BME280;69494;43.654;3.884;2023-05-10T12:12:44;101286.41;;;24.67;24.62
79457;BME280;69494;43.654;3.884;2023-05-10T12:15:20;101283.66;;;25.10;23.98
79457;BME280;69494;43.654;3.884;2023-05-10T12:17:47;101281.31;;;24.91;23.12
79457;BME280;69494;43.654;3.884;2023-05-10T12:20:22;101270.66;;;25.05;23.92
79457;BME280;69494;43.654;3.884;2023-05-10T12:22:52;101283.09;;;25.59;23.44
79457;BME280;69494;43.654;3.884;2023-05-10T12:25:19;101275.25;;;25.30;22.89
79457;BME280;69494;43.654;3.884;2023-05-10T12:27:52;101261.97;;;24.89;23.69
79457;BME280;69494;43.654;3.884;2023-05-10T12:30:20;101268.44;;;24.85;24.95
79457;BME280;69494;43.654;3.884;2023-05-10T12:32:46;101255.75;;;25.57;22.93
79457;BME280;69494;43.654;3.884;2023-05-10T12:35:11;101261.38;;;25.40;24.83
79457;BME280;69494;43.654;3.884;2023-05-10T12:37:42;101258.53;;;24.60;24.22
79457;BME280;69494;43.654;3.884;2023-05-10T12:40:09;101258.53;;;25.01;23.59
79457;BME280;69494;43.654;3.884;2023-05-10T12:42:36;101251.25;;;25.18;24.68
79457;BME280;69494;43.654;3.884;2023-05-10T12:45:02;101258.88;;;25.09;24.51
79457;BME280;69494;43.654;3.884;2023-05-10T12:47:28;101234.25;;;24.93;23.68
79457;BME280;69494;43.654;3.884;2023-05-10T12:49:53;101253.84;;;24.78;23.95
79457;BME280;69494;43.654;3.884;2023-05-10T12:52:19;101235.66;;;24.99;24.35
79457;BME280;69494;43.654;3.884;2023-05-10T12:54:44;101236.84;;;24.80;25.01
79457;BME280;69494;43.654;3.884;2023-05-10T12:57:09;101236.44;;;25.28;24.78
79457;BME280;69494;43.654;3.884;2023-05-10T12:59:35;101231.16;;;24.86;23.89
79457;BME280;69494;43.654;3.884;2023-05-10T13:02:00;101223.28;;;24.85;24.77
79457;BME280;69494;43.654;3.884;2023-05-10T13:04:26;101211.59;;;24.87;25.65
79457;BME280;69494;43.654;3.884;2023-05-10T13:06:51;101221.41;;;25.00;24.35
79457;BME280;69494;43.654;3.884;2023-05-10T13:09:16;101211.84;;;25.24;25.22
79457;BME280;69494;43.654;3.884;2023-05-10T13:11:42;101208.72;;;25.83;24.92
79457;BME280;69494;43.654;3.884;2023-05-10T13:14:07;101225.22;;;25.23;23.63
79457;BME280;69494;43.654;3.884;2023-05-10T13:16:33;101209.38;;;26.00;24.32
79457;BME280;69494;43.654;3.884;2023-05-10T13:18:58;101221.81;;;25.21;24.55
79457;BME280;69494;43.654;3.884;2023-05-10T13:21:24;101211.28;;;24.92;25.47
79457;BME280;69494;43.654;3.884;2023-05-10T13:23:50;101208.47;;;25.08;24.87
79457;BME280;69494;43.654;3.884;2023-05-10T13:26:15;101223.25;;;25.39;24.33
79457;BME280;69494;43.654;3.884;2023-05-10T13:28:41;101233.06;;;25.39;25.32
79457;BME280;69494;43.654;3.884;2023-05-10T13:31:07;101217.00;;;25.40;25.97